Thug — VHS6446 — position and weather

sailwx.info

Track history (hours):
 
Tides and Currents Weather Stations Pressure Air Temp Water Temp Dewpoint Dewpoint Depression Visibility Wind Speed Wind Dir Waves Ship Positions

Thug

Last reported at 2018-Jan-12 10:19 UTC. Time now 2018-Feb-23 12:48 UTC.
Position S 35°08' E 138°21'.
Warning: this ship's position is 42 days out of date.

Length 18 m.

Type: Pleasure craft. MMSI: 503400900.

Date/timePositionNaut miles runAvg speedWind from/ knotsBaromVisibWave heightAir tempDewpointWater temp
2018-Jan-12 10:19S 35°08' E 138°21'2 7.8
2018-Jan-12 10:00S 35°10' E 138°20'  
2018-Jan-07 16:04S 37°53' E 147°59'0 0.1
2018-Jan-07 15:58S 37°53' E 147°59'2 2.8
2018-Jan-07 15:23S 37°54' E 148°01'4 7.9
2018-Jan-07 14:56S 37°54' E 148°06'3 8.0
2018-Jan-07 14:30S 37°53' E 148°10'4 7.8
2018-Jan-07 13:59S 37°53' E 148°15'4 7.7
2018-Jan-07 13:29S 37°53' E 148°20'4 7.7
2018-Jan-07 12:59S 37°53' E 148°25'4 7.7
2018-Jan-07 12:29S 37°52' E 148°30'4 7.7
2018-Jan-07 11:58S 37°52' E 148°34'4 7.7
2018-Jan-07 11:30S 37°52' E 148°39'4 7.6
2018-Jan-07 11:00S 37°52' E 148°44'4 7.6
2018-Jan-07 10:30S 37°51' E 148°49'4 7.6
2018-Jan-07 09:55S 37°51' E 148°54'3 7.4
2018-Jan-07 09:30S 37°51' E 148°58'5 7.7
2018-Jan-07 08:55S 37°51' E 149°04'10 7.4
2018-Jan-07 07:35S 37°49' E 149°16'1 6.8
2018-Jan-07 07:29S 37°49' E 149°17'  
2018-Jan-04 03:20S 32°55' E 151°53'3 5.9
2018-Jan-04 02:50S 32°52' E 151°53'2 6.8
2018-Jan-04 02:30S 32°51' E 151°56'3 7.0
2018-Jan-04 02:00S 32°50' E 151°59'3 7.0
2018-Jan-04 01:30S 32°49' E 152°03'3 6.9
2018-Jan-04 01:00S 32°48' E 152°07'4 7.2
2018-Jan-04 00:30S 32°46' E 152°11'  
Track history (hours):
 
Tides and Currents Weather Stations Pressure Air Temp Water Temp Dewpoint Dewpoint Depression Visibility Wind Speed Wind Dir Waves Ship Positions

Thug

Last reported at 2018-Jan-12 10:19 UTC. Time now 2018-Feb-23 12:48 UTC.
Position S 35°08' E 138°21'.
Warning: this ship's position is 42 days out of date.

Length 18 m.

Type: Pleasure craft. MMSI: 503400900.

Date/timePositionNaut miles runAvg speedWind from/ knotsBaromVisibWave heightAir tempDewpointWater temp
2018-Jan-12 10:19S 35°08' E 138°21'2 7.8
2018-Jan-12 10:00S 35°10' E 138°20'  
2018-Jan-07 16:04S 37°53' E 147°59'0 0.1
2018-Jan-07 15:58S 37°53' E 147°59'2 2.8
2018-Jan-07 15:23S 37°54' E 148°01'4 7.9
2018-Jan-07 14:56S 37°54' E 148°06'3 8.0
2018-Jan-07 14:30S 37°53' E 148°10'4 7.8
2018-Jan-07 13:59S 37°53' E 148°15'4 7.7
2018-Jan-07 13:29S 37°53' E 148°20'4 7.7
2018-Jan-07 12:59S 37°53' E 148°25'4 7.7
2018-Jan-07 12:29S 37°52' E 148°30'4 7.7
2018-Jan-07 11:58S 37°52' E 148°34'4 7.7
2018-Jan-07 11:30S 37°52' E 148°39'4 7.6
2018-Jan-07 11:00S 37°52' E 148°44'4 7.6
2018-Jan-07 10:30S 37°51' E 148°49'4 7.6
2018-Jan-07 09:55S 37°51' E 148°54'3 7.4
2018-Jan-07 09:30S 37°51' E 148°58'5 7.7
2018-Jan-07 08:55S 37°51' E 149°04'10 7.4
2018-Jan-07 07:35S 37°49' E 149°16'1 6.8
2018-Jan-07 07:29S 37°49' E 149°17'  
2018-Jan-04 03:20S 32°55' E 151°53'3 5.9
2018-Jan-04 02:50S 32°52' E 151°53'2 6.8
2018-Jan-04 02:30S 32°51' E 151°56'3 7.0
2018-Jan-04 02:00S 32°50' E 151°59'3 7.0
2018-Jan-04 01:30S 32°49' E 152°03'3 6.9
2018-Jan-04 01:00S 32°48' E 152°07'4 7.2
2018-Jan-04 00:30S 32°46' E 152°11'  

Dump ship's entire track history